CheckWX is a tool to help pilots better visualize weather data.  It is not intended as a substitute for an official pre-flight weather briefing.

11:57:30 UTC

1A6 METAR
Middlesboro-Bell County Airport
Middlesboro, Kentucky, USA
Current

23 mins ago

K1A6 211135Z AUTO 00000KT 10SM OVC110 08/01 A2995 RMK AO2 T00790014
Observed
Mar-21 @ 11:35 UTC
Visibility
10 SM
Flight Rules
VFR
Cloud Levels
  • Overcast at 11,000' AGL
Temperature
C / 46°F
Dewpoint
C / 34°F
Humidity
62%
Altimeter
29.95" Hg
Pressure
1014.22 hPa
Previous

43 mins ago

K1A6 211115Z AUTO 00000KT 10SM OVC095 09/01 A2995 RMK AO2 T00900007
Observed
Mar-21 @ 11:15 UTC
Visibility
10 SM
Flight Rules
VFR
Cloud Levels
  • Overcast at 9,500' AGL
Temperature
C / 48°F
Dewpoint
C / 34°F
Humidity
58%
Altimeter
29.95" Hg
Pressure
1014.22 hPa
Previous

1 hour ago

K1A6 211055Z AUTO 30004KT 10SM OVC085 09/01 A2996 RMK AO2 T00910010
Observed
Mar-21 @ 10:55 UTC
Wind
  • 300° at 4 KTS
Visibility
10 SM
Flight Rules
VFR
Cloud Levels
  • Overcast at 8,500' AGL
Temperature
C / 48°F
Dewpoint
C / 34°F
Humidity
58%
Altimeter
29.96" Hg
Pressure
1014.52 hPa